sensor_id;sensor_type;location;lat;lon;timestamp;temperature;humidity
38456;DHT22;24237;50.106;20.014;2023-08-06T00:00:38;22.00;99.90
38456;DHT22;24237;50.106;20.014;2023-08-06T00:03:03;21.90;99.90
38456;DHT22;24237;50.106;20.014;2023-08-06T00:05:29;21.90;99.90
38456;DHT22;24237;50.106;20.014;2023-08-06T00:07:54;21.80;99.90
38456;DHT22;24237;50.106;20.014;2023-08-06T00:10:20;21.90;99.90
38456;DHT22;24237;50.106;20.014;2023-08-06T00:12:46;22.00;99.90
38456;DHT22;24237;50.106;20.014;2023-08-06T00:15:11;22.10;99.90
38456;DHT22;24237;50.106;20.014;2023-08-06T00:17:37;22.20;99.90
38456;DHT22;24237;50.106;20.014;2023-08-06T00:20:03;22.10;99.90
38456;DHT22;24237;50.106;20.014;2023-08-06T00:22:33;22.20;99.90
38456;DHT22;24237;50.106;20.014;2023-08-06T00:24:59;22.10;96.40
38456;DHT22;24237;50.106;20.014;2023-08-06T00:27:25;22.10;99.90
38456;DHT22;24237;50.106;20.014;2023-08-06T00:29:51;22.20;95.30
38456;DHT22;24237;50.106;20.014;2023-08-06T00:32:17;21.90;99.90
38456;DHT22;24237;50.106;20.014;2023-08-06T00:34:43;22.00;99.90
38456;DHT22;24237;50.106;20.014;2023-08-06T00:37:09;21.90;99.90
38456;DHT22;24237;50.106;20.014;2023-08-06T00:39:34;21.90;99.90
38456;DHT22;24237;50.106;20.014;2023-08-06T00:42:00;21.80;99.90
38456;DHT22;24237;50.106;20.014;2023-08-06T00:44:25;21.80;99.90
38456;DHT22;24237;50.106;20.014;2023-08-06T00:46:51;21.80;99.90
38456;DHT22;24237;50.106;20.014;2023-08-06T00:49:17;21.90;99.90
38456;DHT22;24237;50.106;20.014;2023-08-06T00:51:43;22.10;97.70
38456;DHT22;24237;50.106;20.014;2023-08-06T00:54:09;22.10;96.30
38456;DHT22;24237;50.106;20.014;2023-08-06T00:56:35;22.00;97.10
38456;DHT22;24237;50.106;20.014;2023-08-06T00:59:03;21.80;99.90
38456;DHT22;24237;50.106;20.014;2023-08-06T01:01:29;21.70;99.90
38456;DHT22;24237;50.106;20.014;2023-08-06T01:03:54;21.60;99.90
38456;DHT22;24237;50.106;20.014;2023-08-06T01:06:34;21.50;99.90
38456;DHT22;24237;50.106;20.014;2023-08-06T01:09:19;21.20;99.90
38456;DHT22;24237;50.106;20.014;2023-08-06T01:14:52;21.40;99.90
38456;DHT22;24237;50.106;20.014;2023-08-06T01:17:20;21.50;99.90
38456;DHT22;24237;50.106;20.014;2023-08-06T01:19:45;21.70;99.90
38456;DHT22;24237;50.106;20.014;2023-08-06T01:22:11;21.90;99.90
38456;DHT22;24237;50.106;20.014;2023-08-06T01:24:36;21.90;99.90
38456;DHT22;24237;50.106;20.014;2023-08-06T01:27:19;22.10;99.90
38456;DHT22;24237;50.106;20.014;2023-08-06T01:30:02;21.90;99.90
38456;DHT22;24237;50.106;20.014;2023-08-06T01:32:32;22.10;99.90
38456;DHT22;24237;50.106;20.014;2023-08-06T01:35:00;22.10;99.90
38456;DHT22;24237;50.106;20.014;2023-08-06T01:37:27;22.10;99.90
38456;DHT22;24237;50.106;20.014;2023-08-06T01:39:52;22.10;99.90
38456;DHT22;24237;50.106;20.014;2023-08-06T01:42:18;22.00;99.90
38456;DHT22;24237;50.106;20.014;2023-08-06T01:44:44;22.20;99.90
38456;DHT22;24237;50.106;20.014;2023-08-06T01:47:09;22.20;99.50
38456;DHT22;24237;50.106;20.014;2023-08-06T01:49:35;22.10;99.90
38456;DHT22;24237;50.106;20.014;2023-08-06T01:52:00;22.10;99.90
38456;DHT22;24237;50.106;20.014;2023-08-06T01:54:26;22.30;90.10
38456;DHT22;24237;50.106;20.014;2023-08-06T01:56:53;22.40;87.50
38456;DHT22;24237;50.106;20.014;2023-08-06T01:59:18;22.50;89.30
38456;DHT22;24237;50.106;20.014;2023-08-06T02:01:44;22.40;91.50
38456;DHT22;24237;50.106;20.014;2023-08-06T02:04:10;22.20;97.30
38456;DHT22;24237;50.106;20.014;2023-08-06T02:06:36;22.20;99.90
38456;DHT22;24237;50.106;20.014;2023-08-06T02:09:01;22.40;93.60
38456;DHT22;24237;50.106;20.014;2023-08-06T02:11:27;22.20;97.10
38456;DHT22;24237;50.106;20.014;2023-08-06T02:13:52;22.30;99.90
38456;DHT22;24237;50.106;20.014;2023-08-06T02:16:18;22.30;97.80
38456;DHT22;24237;50.106;20.014;2023-08-06T02:18:43;22.20;99.90
38456;DHT22;24237;50.106;20.014;2023-08-06T02:21:09;22.30;94.20
38456;DHT22;24237;50.106;20.014;2023-08-06T02:23:34;22.30;97.10
38456;DHT22;24237;50.106;20.014;2023-08-06T02:26:01;22.30;95.90
38456;DHT22;24237;50.106;20.014;2023-08-06T02:28:28;22.40;99.90
38456;DHT22;24237;50.106;20.014;2023-08-06T02:30:53;22.20;99.90
38456;DHT22;24237;50.106;20.014;2023-08-06T02:33:19;22.30;99.40
38456;DHT22;24237;50.106;20.014;2023-08-06T02:35:44;22.30;99.90
38456;DHT22;24237;50.106;20.014;2023-08-06T02:38:10;22.40;99.90
38456;DHT22;24237;50.106;20.014;2023-08-06T02:40:36;22.40;96.80
38456;DHT22;24237;50.106;20.014;2023-08-06T02:43:01;22.30;99.90
38456;DHT22;24237;50.106;20.014;2023-08-06T02:45:27;22.30;99.90
38456;DHT22;24237;50.106;20.014;2023-08-06T02:47:54;22.40;98.00
38456;DHT22;24237;50.106;20.014;2023-08-06T02:50:19;22.40;97.70
38456;DHT22;24237;50.106;20.014;2023-08-06T02:52:45;22.40;97.20
38456;DHT22;24237;50.106;20.014;2023-08-06T02:55:10;22.40;93.10
38456;DHT22;24237;50.106;20.014;2023-08-06T02:57:36;22.30;99.90
38456;DHT22;24237;50.106;20.014;2023-08-06T03:00:01;22.30;99.40
38456;DHT22;24237;50.106;20.014;2023-08-06T03:02:27;22.40;98.50
38456;DHT22;24237;50.106;20.014;2023-08-06T03:04:53;22.20;99.90
38456;DHT22;24237;50.106;20.014;2023-08-06T03:07:19;22.10;99.90
38456;DHT22;24237;50.106;20.014;2023-08-06T03:09:44;22.20;99.70
38456;DHT22;24237;50.106;20.014;2023-08-06T03:12:10;22.20;98.60
38456;DHT22;24237;50.106;20.014;2023-08-06T03:14:35;22.30;99.30
38456;DHT22;24237;50.106;20.014;2023-08-06T03:17:01;22.20;99.90
38456;DHT22;24237;50.106;20.014;2023-08-06T03:19:26;22.30;99.90
38456;DHT22;24237;50.106;20.014;2023-08-06T03:21:52;22.20;98.50
38456;DHT22;24237;50.106;20.014;2023-08-06T03:24:17;22.20;99.90
38456;DHT22;24237;50.106;20.014;2023-08-06T03:26:43;22.40;93.90
38456;DHT22;24237;50.106;20.014;2023-08-06T03:29:08;22.40;94.30
38456;DHT22;24237;50.106;20.014;2023-08-06T03:31:34;22.30;97.80
38456;DHT22;24237;50.106;20.014;2023-08-06T03:33:59;22.40;95.80
38456;DHT22;24237;50.106;20.014;2023-08-06T03:36:25;22.40;93.70
38456;DHT22;24237;50.106;20.014;2023-08-06T03:38:50;22.40;94.80
38456;DHT22;24237;50.106;20.014;2023-08-06T03:41:16;22.30;96.90
38456;DHT22;24237;50.106;20.014;2023-08-06T03:43:42;22.30;99.60
38456;DHT22;24237;50.106;20.014;2023-08-06T03:46:07;22.40;93.20
38456;DHT22;24237;50.106;20.014;2023-08-06T03:48:33;22.40;94.40
38456;DHT22;24237;50.106;20.014;2023-08-06T03:50:58;22.40;91.40
38456;DHT22;24237;50.106;20.014;2023-08-06T03:53:26;22.40;93.40
38456;DHT22;24237;50.106;20.014;2023-08-06T03:55:51;22.40;91.20
38456;DHT22;24237;50.106;20.014;2023-08-06T03:58:17;22.40;93.70
38456;DHT22;24237;50.106;20.014;2023-08-06T04:00:42;22.40;91.30
38456;DHT22;24237;50.106;20.014;2023-08-06T04:03:08;22.50;89.70
38456;DHT22;24237;50.106;20.014;2023-08-06T04:05:33;22.50;85.90
38456;DHT22;24237;50.106;20.014;2023-08-06T04:07:59;22.50;83.70
38456;DHT22;24237;50.106;20.014;2023-08-06T04:10:25;22.60;77.70
38456;DHT22;24237;50.106;20.014;2023-08-06T04:12:50;22.70;78.20
38456;DHT22;24237;50.106;20.014;2023-08-06T04:15:16;22.50;92.80
38456;DHT22;24237;50.106;20.014;2023-08-06T04:17:42;22.40;89.50
38456;DHT22;24237;50.106;20.014;2023-08-06T04:20:08;22.40;97.60
38456;DHT22;24237;50.106;20.014;2023-08-06T04:22:33;22.30;99.20
38456;DHT22;24237;50.106;20.014;2023-08-06T04:24:59;22.10;99.90
38456;DHT22;24237;50.106;20.014;2023-08-06T04:27:24;22.40;94.80
38456;DHT22;24237;50.106;20.014;2023-08-06T04:29:50;22.30;99.90
38456;DHT22;24237;50.106;20.014;2023-08-06T04:32:16;22.30;97.60
38456;DHT22;24237;50.106;20.014;2023-08-06T04:34:42;22.30;96.30
38456;DHT22;24237;50.106;20.014;2023-08-06T04:37:08;22.20;97.50
38456;DHT22;24237;50.106;20.014;2023-08-06T04:39:34;22.40;90.80
38456;DHT22;24237;50.106;20.014;2023-08-06T04:41:59;22.30;91.70
38456;DHT22;24237;50.106;20.014;2023-08-06T04:44:25;22.40;93.40
38456;DHT22;24237;50.106;20.014;2023-08-06T04:46:51;22.30;94.20
38456;DHT22;24237;50.106;20.014;2023-08-06T04:49:17;22.40;94.40
38456;DHT22;24237;50.106;20.014;2023-08-06T04:51:43;22.30;91.40
38456;DHT22;24237;50.106;20.014;2023-08-06T04:54:09;22.30;90.80
38456;DHT22;24237;50.106;20.014;2023-08-06T04:56:35;22.30;89.00
38456;DHT22;24237;50.106;20.014;2023-08-06T04:59:00;22.40;76.00
38456;DHT22;24237;50.106;20.014;2023-08-06T05:01:26;22.30;83.80
38456;DHT22;24237;50.106;20.014;2023-08-06T05:03:51;22.30;89.20
38456;DHT22;24237;50.106;20.014;2023-08-06T05:06:17;22.40;80.40
38456;DHT22;24237;50.106;20.014;2023-08-06T05:08:42;22.40;81.60
38456;DHT22;24237;50.106;20.014;2023-08-06T05:11:09;22.40;73.10
38456;DHT22;24237;50.106;20.014;2023-08-06T05:13:34;22.60;54.30
38456;DHT22;24237;50.106;20.014;2023-08-06T05:16:00;22.80;33.40
38456;DHT22;24237;50.106;20.014;2023-08-06T05:18:26;22.70;34.00
38456;DHT22;24237;50.106;20.014;2023-08-06T05:20:51;22.50;49.70
38456;DHT22;24237;50.106;20.014;2023-08-06T05:23:17;22.50;69.40
38456;DHT22;24237;50.106;20.014;2023-08-06T05:25:42;22.50;61.60
38456;DHT22;24237;50.106;20.014;2023-08-06T05:28:08;22.50;56.80
38456;DHT22;24237;50.106;20.014;2023-08-06T05:30:33;22.30;77.50
38456;DHT22;24237;50.106;20.014;2023-08-06T05:32:59;22.20;84.30
38456;DHT22;24237;50.106;20.014;2023-08-06T05:35:24;22.10;96.00
38456;DHT22;24237;50.106;20.014;2023-08-06T05:37:50;22.30;85.80
38456;DHT22;24237;50.106;20.014;2023-08-06T05:40:16;22.40;73.80
38456;DHT22;24237;50.106;20.014;2023-08-06T05:42:41;22.40;74.80
38456;DHT22;24237;50.106;20.014;2023-08-06T05:45:08;22.30;83.70
38456;DHT22;24237;50.106;20.014;2023-08-06T05:47:33;22.30;91.20
38456;DHT22;24237;50.106;20.014;2023-08-06T05:49:59;22.30;86.90
38456;DHT22;24237;50.106;20.014;2023-08-06T05:52:24;22.30;87.60
38456;DHT22;24237;50.106;20.014;2023-08-06T05:54:50;22.40;91.90
38456;DHT22;24237;50.106;20.014;2023-08-06T05:57:16;22.60;67.70
38456;DHT22;24237;50.106;20.014;2023-08-06T05:59:42;22.80;54.80
38456;DHT22;24237;50.106;20.014;2023-08-06T06:02:08;22.60;68.90
38456;DHT22;24237;50.106;20.014;2023-08-06T06:04:33;22.50;65.80
38456;DHT22;24237;50.106;20.014;2023-08-06T06:06:59;22.30;79.10
38456;DHT22;24237;50.106;20.014;2023-08-06T06:09:25;22.40;80.40
38456;DHT22;24237;50.106;20.014;2023-08-06T06:11:51;22.40;92.00
38456;DHT22;24237;50.106;20.014;2023-08-06T06:14:17;22.40;86.40
38456;DHT22;24237;50.106;20.014;2023-08-06T06:16:43;22.30;90.30
38456;DHT22;24237;50.106;20.014;2023-08-06T06:19:09;22.40;89.50
38456;DHT22;24237;50.106;20.014;2023-08-06T06:21:34;22.50;90.70
38456;DHT22;24237;50.106;20.014;2023-08-06T06:24:00;22.60;70.00
38456;DHT22;24237;50.106;20.014;2023-08-06T06:26:25;22.40;78.40
38456;DHT22;24237;50.106;20.014;2023-08-06T06:28:51;22.30;91.10
38456;DHT22;24237;50.106;20.014;2023-08-06T06:31:16;22.40;94.80
38456;DHT22;24237;50.106;20.014;2023-08-06T06:33:42;22.50;74.40
38456;DHT22;24237;50.106;20.014;2023-08-06T06:36:08;22.50;96.20
38456;DHT22;24237;50.106;20.014;2023-08-06T06:38:34;22.50;88.30
38456;DHT22;24237;50.106;20.014;2023-08-06T06:41:00;22.50;74.10
38456;DHT22;24237;50.106;20.014;2023-08-06T06:43:26;22.50;73.00
38456;DHT22;24237;50.106;20.014;2023-08-06T06:46:00;22.30;98.90
38456;DHT22;24237;50.106;20.014;2023-08-06T06:48:31;22.50;93.10
38456;DHT22;24237;50.106;20.014;2023-08-06T06:50:57;22.50;87.70
38456;DHT22;24237;50.106;20.014;2023-08-06T06:53:23;22.50;95.50
38456;DHT22;24237;50.106;20.014;2023-08-06T06:55:53;22.50;99.90
38456;DHT22;24237;50.106;20.014;2023-08-06T06:58:19;22.50;96.90
38456;DHT22;24237;50.106;20.014;2023-08-06T07:00:46;22.50;96.30
38456;DHT22;24237;50.106;20.014;2023-08-06T07:03:11;22.70;78.40
38456;DHT22;24237;50.106;20.014;2023-08-06T07:05:37;22.70;85.40
38456;DHT22;24237;50.106;20.014;2023-08-06T07:08:03;22.90;73.10
38456;DHT22;24237;50.106;20.014;2023-08-06T07:10:28;22.80;79.40
38456;DHT22;24237;50.106;20.014;2023-08-06T07:12:54;22.70;80.50
38456;DHT22;24237;50.106;20.014;2023-08-06T07:15:20;22.80;66.10
38456;DHT22;24237;50.106;20.014;2023-08-06T07:17:45;22.70;86.80
38456;DHT22;24237;50.106;20.014;2023-08-06T07:20:11;22.70;76.50
38456;DHT22;24237;50.106;20.014;2023-08-06T07:22:36;22.80;75.50
38456;DHT22;24237;50.106;20.014;2023-08-06T07:25:02;22.80;77.80
38456;DHT22;24237;50.106;20.014;2023-08-06T07:27:28;22.70;93.10
38456;DHT22;24237;50.106;20.014;2023-08-06T07:29:53;22.80;79.30
38456;DHT22;24237;50.106;20.014;2023-08-06T07:32:19;22.90;93.00
38456;DHT22;24237;50.106;20.014;2023-08-06T07:34:44;23.00;71.30
38456;DHT22;24237;50.106;20.014;2023-08-06T07:37:10;22.90;78.80
38456;DHT22;24237;50.106;20.014;2023-08-06T07:39:35;22.90;81.80
38456;DHT22;24237;50.106;20.014;2023-08-06T07:42:03;23.10;70.40
38456;DHT22;24237;50.106;20.014;2023-08-06T07:44:31;22.80;80.60
38456;DHT22;24237;50.106;20.014;2023-08-06T07:46:56;22.90;63.90
38456;DHT22;24237;50.106;20.014;2023-08-06T07:49:22;22.70;90.80
38456;DHT22;24237;50.106;20.014;2023-08-06T07:51:47;22.70;98.40
38456;DHT22;24237;50.106;20.014;2023-08-06T07:54:13;22.90;84.10
38456;DHT22;24237;50.106;20.014;2023-08-06T07:56:39;23.00;90.60
38456;DHT22;24237;50.106;20.014;2023-08-06T07:59:04;22.80;1.00
38456;DHT22;24237;50.106;20.014;2023-08-06T08:01:30;22.40;1.00
38456;DHT22;24237;50.106;20.014;2023-08-06T08:03:55;22.30;13.70
38456;DHT22;24237;50.106;20.014;2023-08-06T08:06:21;22.00;7.80
38456;DHT22;24237;50.106;20.014;2023-08-06T08:08:46;21.90;1.00
38456;DHT22;24237;50.106;20.014;2023-08-06T08:11:13;21.50;1.00
38456;DHT22;24237;50.106;20.014;2023-08-06T08:13:39;21.20;63.20
38456;DHT22;24237;50.106;20.014;2023-08-06T08:16:05;21.30;25.30
38456;DHT22;24237;50.106;20.014;2023-08-06T08:18:30;20.90;60.10
38456;DHT22;24237;50.106;20.014;2023-08-06T08:20:57;20.90;77.70
38456;DHT22;24237;50.106;20.014;2023-08-06T08:23:22;20.90;65.60
38456;DHT22;24237;50.106;20.014;2023-08-06T08:25:48;21.00;57.20
38456;DHT22;24237;50.106;20.014;2023-08-06T08:28:13;21.20;43.50
38456;DHT22;24237;50.106;20.014;2023-08-06T08:30:40;21.30;24.90
38456;DHT22;24237;50.106;20.014;2023-08-06T08:33:06;21.20;19.20
38456;DHT22;24237;50.106;20.014;2023-08-06T08:35:33;21.10;23.40
38456;DHT22;24237;50.106;20.014;2023-08-06T08:37:59;21.10;31.90
38456;DHT22;24237;50.106;20.014;2023-08-06T08:40:32;21.00;26.80
38456;DHT22;24237;50.106;20.014;2023-08-06T08:42:59;20.90;24.50
38456;DHT22;24237;50.106;20.014;2023-08-06T08:45:26;20.90;33.30
38456;DHT22;24237;50.106;20.014;2023-08-06T08:47:54;20.70;46.70
38456;DHT22;24237;50.106;20.014;2023-08-06T08:50:21;20.60;69.40
38456;DHT22;24237;50.106;20.014;2023-08-06T08:52:47;20.50;82.90
38456;DHT22;24237;50.106;20.014;2023-08-06T08:55:15;20.40;80.40
38456;DHT22;24237;50.106;20.014;2023-08-06T08:57:40;20.30;85.90
38456;DHT22;24237;50.106;20.014;2023-08-06T09:00:06;20.20;97.90
38456;DHT22;24237;50.106;20.014;2023-08-06T09:02:33;20.30;78.00
38456;DHT22;24237;50.106;20.014;2023-08-06T09:05:00;20.30;83.40
38456;DHT22;24237;50.106;20.014;2023-08-06T09:08:06;20.30;76.70
38456;DHT22;24237;50.106;20.014;2023-08-06T09:10:34;20.40;63.10
38456;DHT22;24237;50.106;20.014;2023-08-06T09:13:01;20.50;49.00
38456;DHT22;24237;50.106;20.014;2023-08-06T09:15:29;20.50;51.90
38456;DHT22;24237;50.106;20.014;2023-08-06T09:17:55;20.30;75.10
38456;DHT22;24237;50.106;20.014;2023-08-06T09:20:21;20.40;95.20
38456;DHT22;24237;50.106;20.014;2023-08-06T09:22:47;20.50;86.80
38456;DHT22;24237;50.106;20.014;2023-08-06T09:25:23;20.80;58.50
38456;DHT22;24237;50.106;20.014;2023-08-06T09:27:53;21.00;15.20
38456;DHT22;24237;50.106;20.014;2023-08-06T09:30:29;21.00;15.40
38456;DHT22;24237;50.106;20.014;2023-08-06T09:32:56;20.90;23.60
38456;DHT22;24237;50.106;20.014;2023-08-06T09:35:22;20.90;16.70
38456;DHT22;24237;50.106;20.014;2023-08-06T09:37:47;21.00;25.10
38456;DHT22;24237;50.106;20.014;2023-08-06T09:40:31;21.10;1.00
38456;DHT22;24237;50.106;20.014;2023-08-06T09:42:58;21.00;1.00
38456;DHT22;24237;50.106;20.014;2023-08-06T09:45:30;21.10;6.10
38456;DHT22;24237;50.106;20.014;2023-08-06T09:48:00;21.10;11.70
38456;DHT22;24237;50.106;20.014;2023-08-06T09:50:30;20.90;10.90
38456;DHT22;24237;50.106;20.014;2023-08-06T09:53:01;20.70;29.10
38456;DHT22;24237;50.106;20.014;2023-08-06T09:55:27;20.70;27.40
38456;DHT22;24237;50.106;20.014;2023-08-06T09:57:53;20.70;27.30
38456;DHT22;24237;50.106;20.014;2023-08-06T10:00:20;20.60;23.70
38456;DHT22;24237;50.106;20.014;2023-08-06T10:02:46;20.60;1.50
38456;DHT22;24237;50.106;20.014;2023-08-06T10:05:12;20.70;1.00
38456;DHT22;24237;50.106;20.014;2023-08-06T10:07:40;20.50;9.80
38456;DHT22;24237;50.106;20.014;2023-08-06T10:10:06;20.40;16.10
38456;DHT22;24237;50.106;20.014;2023-08-06T10:12:40;20.40;4.20
38456;DHT22;24237;50.106;20.014;2023-08-06T10:15:12;20.30;20.40
38456;DHT22;24237;50.106;20.014;2023-08-06T10:17:39;20.20;30.60
38456;DHT22;24237;50.106;20.014;2023-08-06T10:20:07;20.30;1.00
38456;DHT22;24237;50.106;20.014;2023-08-06T10:22:34;20.30;3.70
38456;DHT22;24237;50.106;20.014;2023-08-06T10:25:00;20.20;1.00
38456;DHT22;24237;50.106;20.014;2023-08-06T10:27:41;20.20;1.00
38456;DHT22;24237;50.106;20.014;2023-08-06T10:30:31;20.30;1.00
38456;DHT22;24237;50.106;20.014;2023-08-06T10:32:59;20.20;1.00
38456;DHT22;24237;50.106;20.014;2023-08-06T10:38:22;20.20;1.00
38456;DHT22;24237;50.106;20.014;2023-08-06T10:43:35;20.20;1.00
38456;DHT22;24237;50.106;20.014;2023-08-06T10:46:03;20.50;1.00
38456;DHT22;24237;50.106;20.014;2023-08-06T10:48:39;20.50;1.00
38456;DHT22;24237;50.106;20.014;2023-08-06T10:51:09;20.20;1.00
38456;DHT22;24237;50.106;20.014;2023-08-06T10:53:35;19.90;1.00
38456;DHT22;24237;50.106;20.014;2023-08-06T10:56:01;19.90;1.00
38456;DHT22;24237;50.106;20.014;2023-08-06T10:58:34;19.80;1.00
38456;DHT22;24237;50.106;20.014;2023-08-06T11:01:00;19.70;15.10
38456;DHT22;24237;50.106;20.014;2023-08-06T11:03:27;19.60;1.00
38456;DHT22;24237;50.106;20.014;2023-08-06T11:05:53;19.70;19.30
38456;DHT22;24237;50.106;20.014;2023-08-06T11:08:29;19.70;1.00
38456;DHT22;24237;50.106;20.014;2023-08-06T11:10:55;19.90;1.00
38456;DHT22;24237;50.106;20.014;2023-08-06T11:13:32;19.80;1.00
38456;DHT22;24237;50.106;20.014;2023-08-06T11:15:58;19.80;1.00
38456;DHT22;24237;50.106;20.014;2023-08-06T11:18:24;19.90;1.00
38456;DHT22;24237;50.106;20.014;2023-08-06T11:20:49;19.90;1.00
38456;DHT22;24237;50.106;20.014;2023-08-06T11:23:15;19.80;1.00
38456;DHT22;24237;50.106;20.014;2023-08-06T11:25:46;20.00;1.00
38456;DHT22;24237;50.106;20.014;2023-08-06T11:28:12;20.00;1.00
38456;DHT22;24237;50.106;20.014;2023-08-06T11:30:38;20.10;1.00
38456;DHT22;24237;50.106;20.014;2023-08-06T11:33:07;20.00;1.00
38456;DHT22;24237;50.106;20.014;2023-08-06T11:35:35;19.90;1.00
38456;DHT22;24237;50.106;20.014;2023-08-06T11:38:01;19.70;1.00
38456;DHT22;24237;50.106;20.014;2023-08-06T11:40:27;19.50;1.00
38456;DHT22;24237;50.106;20.014;2023-08-06T11:42:52;19.40;1.00
38456;DHT22;24237;50.106;20.014;2023-08-06T11:45:22;19.30;1.00
38456;DHT22;24237;50.106;20.014;2023-08-06T11:47:50;19.50;1.00
38456;DHT22;24237;50.106;20.014;2023-08-06T11:50:25;19.40;1.00
38456;DHT22;24237;50.106;20.014;2023-08-06T11:52:58;19.40;1.00
38456;DHT22;24237;50.106;20.014;2023-08-06T11:55:25;19.20;1.00
38456;DHT22;24237;50.106;20.014;2023-08-06T11:57:51;19.20;1.00
38456;DHT22;24237;50.106;20.014;2023-08-06T12:00:17;18.90;1.00
38456;DHT22;24237;50.106;20.014;2023-08-06T12:02:46;18.70;17.60
38456;DHT22;24237;50.106;20.014;2023-08-06T12:05:15;18.70;10.30
38456;DHT22;24237;50.106;20.014;2023-08-06T12:07:43;18.60;61.00
38456;DHT22;24237;50.106;20.014;2023-08-06T12:10:09;18.40;76.80
38456;DHT22;24237;50.106;20.014;2023-08-06T12:12:35;18.40;60.90
38456;DHT22;24237;50.106;20.014;2023-08-06T12:15:03;18.30;89.40
38456;DHT22;24237;50.106;20.014;2023-08-06T12:17:29;18.00;82.80
38456;DHT22;24237;50.106;20.014;2023-08-06T12:19:54;17.80;99.90
38456;DHT22;24237;50.106;20.014;2023-08-06T12:22:20;17.80;99.90
38456;DHT22;24237;50.106;20.014;2023-08-06T12:24:47;17.70;99.90
38456;DHT22;24237;50.106;20.014;2023-08-06T12:27:13;17.70;99.90
38456;DHT22;24237;50.106;20.014;2023-08-06T12:29:46;17.60;99.90
38456;DHT22;24237;50.106;20.014;2023-08-06T12:32:13;17.60;99.90
38456;DHT22;24237;50.106;20.014;2023-08-06T12:34:40;17.60;99.90
38456;DHT22;24237;50.106;20.014;2023-08-06T12:37:05;17.50;99.90
38456;DHT22;24237;50.106;20.014;2023-08-06T12:39:33;17.40;99.90
38456;DHT22;24237;50.106;20.014;2023-08-06T12:42:00;17.20;99.90
38456;DHT22;24237;50.106;20.014;2023-08-06T12:44:26;17.20;99.90
38456;DHT22;24237;50.106;20.014;2023-08-06T12:46:52;17.10;99.90
38456;DHT22;24237;50.106;20.014;2023-08-06T12:49:18;17.20;99.90
38456;DHT22;24237;50.106;20.014;2023-08-06T12:51:48;17.20;99.90
38456;DHT22;24237;50.106;20.014;2023-08-06T12:54:14;17.30;99.90
38456;DHT22;24237;50.106;20.014;2023-08-06T12:56:39;17.50;99.90
38456;DHT22;24237;50.106;20.014;2023-08-06T12:59:05;17.50;99.90
38456;DHT22;24237;50.106;20.014;2023-08-06T13:01:30;17.70;99.90
38456;DHT22;24237;50.106;20.014;2023-08-06T13:03:56;17.70;99.90
38456;DHT22;24237;50.106;20.014;2023-08-06T13:06:21;17.80;99.90
38456;DHT22;24237;50.106;20.014;2023-08-06T13:08:47;18.00;97.00
38456;DHT22;24237;50.106;20.014;2023-08-06T13:11:13;17.80;99.90
38456;DHT22;24237;50.106;20.014;2023-08-06T13:13:38;17.70;99.90
38456;DHT22;24237;50.106;20.014;2023-08-06T13:16:04;17.60;99.90
38456;DHT22;24237;50.106;20.014;2023-08-06T13:18:29;17.70;99.90
38456;DHT22;24237;50.106;20.014;2023-08-06T13:20:56;17.90;99.90
38456;DHT22;24237;50.106;20.014;2023-08-06T13:23:22;17.80;99.90
38456;DHT22;24237;50.106;20.014;2023-08-06T13:25:47;17.70;99.90
38456;DHT22;24237;50.106;20.014;2023-08-06T13:28:13;17.60;99.90
38456;DHT22;24237;50.106;20.014;2023-08-06T13:30:41;17.60;99.90
38456;DHT22;24237;50.106;20.014;2023-08-06T13:33:09;17.50;99.90
38456;DHT22;24237;50.106;20.014;2023-08-06T13:35:34;17.60;99.90
38456;DHT22;24237;50.106;20.014;2023-08-06T13:38:00;17.60;99.90
38456;DHT22;24237;50.106;20.014;2023-08-06T13:40:28;17.80;99.90
38456;DHT22;24237;50.106;20.014;2023-08-06T13:42:54;17.80;99.90
38456;DHT22;24237;50.106;20.014;2023-08-06T13:45:19;17.90;99.90
38456;DHT22;24237;50.106;20.014;2023-08-06T13:47:45;17.80;99.90
38456;DHT22;24237;50.106;20.014;2023-08-06T13:50:10;17.90;99.90
38456;DHT22;24237;50.106;20.014;2023-08-06T13:52:36;18.10;99.90
38456;DHT22;24237;50.106;20.014;2023-08-06T13:55:02;18.10;94.20
38456;DHT22;24237;50.106;20.014;2023-08-06T13:57:29;18.10;94.50
38456;DHT22;24237;50.106;20.014;2023-08-06T13:59:55;18.10;99.90
38456;DHT22;24237;50.106;20.014;2023-08-06T14:02:20;18.10;99.90
38456;DHT22;24237;50.106;20.014;2023-08-06T14:04:46;18.40;78.20
38456;DHT22;24237;50.106;20.014;2023-08-06T14:07:11;18.40;57.70
38456;DHT22;24237;50.106;20.014;2023-08-06T14:09:37;18.40;50.10
38456;DHT22;24237;50.106;20.014;2023-08-06T14:12:02;18.30;65.10
38456;DHT22;24237;50.106;20.014;2023-08-06T14:14:28;18.40;51.00
38456;DHT22;24237;50.106;20.014;2023-08-06T14:16:54;18.40;44.50
38456;DHT22;24237;50.106;20.014;2023-08-06T14:19:20;18.50;30.10
38456;DHT22;24237;50.106;20.014;2023-08-06T14:21:46;18.50;16.90
38456;DHT22;24237;50.106;20.014;2023-08-06T14:24:11;18.50;10.60
38456;DHT22;24237;50.106;20.014;2023-08-06T14:26:37;18.40;37.30
38456;DHT22;24237;50.106;20.014;2023-08-06T14:29:03;18.50;60.50
38456;DHT22;24237;50.106;20.014;2023-08-06T14:31:29;18.70;23.10
38456;DHT22;24237;50.106;20.014;2023-08-06T14:33:55;18.60;40.80
38456;DHT22;24237;50.106;20.014;2023-08-06T14:36:20;18.60;13.30
38456;DHT22;24237;50.106;20.014;2023-08-06T14:38:46;18.50;25.80
38456;DHT22;24237;50.106;20.014;2023-08-06T14:41:11;18.40;28.90
38456;DHT22;24237;50.106;20.014;2023-08-06T14:43:37;18.30;52.70
38456;DHT22;24237;50.106;20.014;2023-08-06T14:46:03;18.30;43.70
38456;DHT22;24237;50.106;20.014;2023-08-06T14:48:29;18.30;60.20
38456;DHT22;24237;50.106;20.014;2023-08-06T14:50:55;18.40;33.90
38456;DHT22;24237;50.106;20.014;2023-08-06T14:53:21;18.40;42.30
38456;DHT22;24237;50.106;20.014;2023-08-06T14:55:46;18.30;73.10
38456;DHT22;24237;50.106;20.014;2023-08-06T14:58:12;18.40;46.80
38456;DHT22;24237;50.106;20.014;2023-08-06T15:00:38;18.70;27.60
38456;DHT22;24237;50.106;20.014;2023-08-06T15:03:03;18.90;24.30
38456;DHT22;24237;50.106;20.014;2023-08-06T15:05:29;18.80;16.30
38456;DHT22;24237;50.106;20.014;2023-08-06T15:07:54;18.80;1.10
38456;DHT22;24237;50.106;20.014;2023-08-06T15:10:20;18.70;24.80
38456;DHT22;24237;50.106;20.014;2023-08-06T15:12:46;18.70;26.50
38456;DHT22;24237;50.106;20.014;2023-08-06T15:15:11;18.80;26.90
38456;DHT22;24237;50.106;20.014;2023-08-06T15:17:37;18.80;13.40
38456;DHT22;24237;50.106;20.014;2023-08-06T15:20:03;18.50;22.50
38456;DHT22;24237;50.106;20.014;2023-08-06T15:22:29;18.30;43.60